Language selection

My Weather Profile Weather Topics  | 

Atlantic - Labrador: Past 24 Hour Conditions

 

Mary's Harbour

07:30 PM NDT 21 June 2021
Disclaimer

This table is a summary of hourly weather conditions for the past 24 hours.
Please note that these observations might not always be representative of weather conditions over their associated marine area.

Date / Time
(NDT)
Wind(knots) Conditions Visibility(km) Pressure(kPa) Air tempC) Relative humidity(%) Dew pointC)
21 June 2021
19:30 ESE 9 Sunny 16 100.8 10 81 7
18:30 E 8 Sunny 16 100.8 11 77 8
17:30 E 9 Sunny 16 100.7 12 74 8
16:30 E 9 Sunny 16 100.7 12 73 7
15:30 E 7 Sunny 16 100.7 13 72 8
14:30 E 8 Sunny 16 100.6 13 70 8
13:30 E 10 gust 15 Sunny 16 100.5 13 72 8
12:30 E 10 Sunny 16 100.5 16 69 10
11:30 ENE 10 Sunny 16 100.5 15 68 9
10:30 E 9 Sunny 16 100.5 14 74 9
9:30 E 6 Mainly Sunny 16 100.4 13 77 9
8:30 ENE 6 Mostly Cloudy 16 100.4 11 85 9
7:30 NE 7 Cloudy 16 100.3 11 89 9
6:30 NE 3 Cloudy 16 100.3 11 93 10
5:30 NE 4 Cloudy 16 100.2 11 92 10
4:30 N 4 Light Rain 16 100.2 11 96 10
3:30 NNW 6 Light Rain 16 100.1 11 91 10
2:30 WNW 2 Cloudy 16 100.1 13 91 12
1:30 S 3 Cloudy 16 100.1 14 88 12
0:30 S 5 Cloudy 16 100.1 14 87 12
20 June 2021
23:30 S 5 Cloudy 16 100.2 15 85 12
22:30 SSW 4 Cloudy 16 100.2 15 80 12
21:30 S 7 Cloudy 16 100.1 16 77 12
20:30 S 5 Cloudy 16 100.1 17 71 12
19:30 S 7 Cloudy 16 100.1 19 64 12

Zoom-in to make a selection

Map of Atlantic - Labrador marine weather areas Kangiqsualujjuaq Airport Cape Kakkiviak Cape Kiglapait Cartwright Airport CFB Goose Bay Hopedale Mary's Harbour Nain Airport Makkovik Airport Saglek Tukialik Bay
Legend:
buoy Buoy
land station Land Station

Atlantic - Labrador Area

Another Region

What we are doing

Date modified: